createdAt,value
2022-08-05T00:02:07.910Z,24.44
2022-08-05T00:04:38.303Z,24.39
2022-08-05T00:07:26.859Z,24.28
2022-08-05T00:09:53.635Z,24.27
2022-08-05T00:12:21.454Z,24.24
2022-08-05T00:14:48.480Z,24.24
2022-08-05T00:17:19.372Z,24.24
2022-08-05T00:20:02.235Z,24.22
2022-08-05T00:22:29.691Z,24.21
2022-08-05T00:24:57.508Z,24.18
2022-08-05T00:27:28.370Z,24.18
2022-08-05T00:30:03.239Z,24.18
2022-08-05T00:32:30.011Z,24.14
2022-08-05T00:35:06.072Z,24.15
2022-08-05T00:37:51.302Z,24.13
2022-08-05T00:40:28.465Z,24.10
2022-08-05T00:43:00.905Z,24.01
2022-08-05T00:45:38.529Z,23.97
2022-08-05T00:48:17.755Z,23.93
2022-08-05T00:50:54.200Z,23.91
2022-08-05T00:54:00.706Z,23.90
2022-08-05T00:56:08.981Z,23.85
2022-08-05T00:58:35.802Z,23.80
2022-08-05T01:01:03.818Z,23.80
2022-08-05T01:03:35.321Z,23.80
2022-08-05T01:06:01.807Z,23.78
2022-08-05T01:08:43.255Z,23.73
2022-08-05T01:11:33.691Z,23.68
2022-08-05T01:14:17.831Z,23.66
2022-08-05T01:17:06.942Z,23.68
2022-08-05T01:20:00.740Z,23.65
2022-08-05T01:23:13.580Z,23.65
2022-08-05T01:25:53.744Z,23.65
2022-08-05T01:28:39.336Z,23.64
2022-08-05T01:31:10.634Z,23.62
2022-08-05T01:33:48.947Z,23.60
2022-08-05T01:36:18.800Z,23.60
2022-08-05T01:38:49.888Z,23.59
2022-08-05T01:41:21.066Z,23.62
2022-08-05T01:43:50.996Z,23.59
2022-08-05T01:46:42.935Z,23.55
2022-08-05T01:49:22.955Z,23.60
2022-08-05T01:51:56.280Z,23.61
2022-08-05T01:54:29.280Z,23.61
2022-08-05T01:58:11.161Z,23.56
2022-08-05T01:59:47.504Z,23.54
2022-08-05T02:02:14.521Z,23.49
2022-08-05T02:04:46.287Z,23.49
2022-08-05T02:07:22.102Z,23.49
2022-08-05T02:09:50.869Z,23.50
2022-08-05T02:12:27.864Z,23.52
2022-08-05T02:15:18.439Z,23.54
2022-08-05T02:18:28.508Z,23.60
2022-08-05T02:20:58.720Z,23.58
2022-08-05T02:23:33.726Z,23.58
2022-08-05T02:26:06.143Z,23.57
2022-08-05T02:28:41.645Z,23.57
2022-08-05T02:31:17.247Z,23.55
2022-08-05T02:33:57.404Z,23.54
2022-08-05T02:36:27.546Z,23.55
2022-08-05T02:38:57.604Z,23.54
2022-08-05T02:41:28.643Z,23.55
2022-08-05T02:44:11.905Z,23.55
2022-08-05T02:46:58.765Z,23.51
2022-08-05T02:49:37.064Z,22.97
2022-08-05T02:52:13.535Z,22.68
2022-08-05T02:54:53.898Z,22.81
2022-08-05T02:58:11.928Z,22.91
2022-08-05T03:00:11.405Z,23.01
2022-08-05T03:02:40.602Z,23.01
2022-08-05T03:05:10.947Z,22.94
2022-08-05T03:08:00.316Z,22.86
2022-08-05T03:10:28.811Z,22.81
2022-08-05T03:12:55.338Z,22.79
2022-08-05T03:15:25.154Z,22.80
2022-08-05T03:17:55.780Z,22.81
2022-08-05T03:20:24.490Z,22.80
2022-08-05T03:22:52.544Z,22.78
2022-08-05T03:25:33.533Z,22.79
2022-08-05T03:28:10.567Z,22.78
2022-08-05T03:30:41.204Z,22.73
2022-08-05T03:33:09.309Z,22.66
2022-08-05T03:35:41.712Z,22.62
2022-08-05T03:38:11.507Z,22.59
2022-08-05T03:40:47.294Z,22.52
2022-08-05T03:44:08.075Z,22.52
2022-08-05T03:46:04.824Z,22.53
2022-08-05T03:48:35.457Z,22.53
2022-08-05T03:52:37.213Z,22.51
2022-08-05T03:55:52.722Z,22.46
2022-08-05T03:57:16.060Z,22.41
2022-08-05T04:00:19.396Z,22.34
2022-08-05T04:08:05.869Z,22.39
2022-08-05T04:10:43.740Z,22.44
2022-08-05T04:13:11.520Z,22.45
2022-08-05T04:15:38.353Z,22.45
2022-08-05T04:18:22.338Z,22.42
2022-08-05T04:20:53.647Z,22.44
2022-08-05T04:24:06.068Z,22.46
2022-08-05T04:26:09.807Z,22.46
2022-08-05T04:28:40.217Z,22.46
2022-08-05T04:31:18.021Z,22.46
2022-08-05T04:34:17.663Z,22.48
2022-08-05T04:36:45.902Z,22.49
2022-08-05T04:39:16.808Z,22.50
2022-08-05T04:41:43.495Z,22.49
2022-08-05T04:44:12.107Z,22.50
2022-08-05T04:46:38.891Z,22.48
2022-08-05T04:49:12.312Z,22.47
2022-08-05T04:51:42.835Z,22.45
2022-08-05T04:54:09.991Z,22.43
2022-08-05T04:56:38.671Z,22.40
2022-08-05T04:59:13.847Z,22.40
2022-08-05T05:02:35.656Z,22.38
2022-08-05T05:04:44.091Z,22.40
2022-08-05T05:07:15.910Z,22.41
2022-08-05T05:09:44.437Z,22.44
2022-08-05T05:12:11.542Z,22.48
2022-08-05T05:14:38.225Z,22.50
2022-08-05T05:17:22.798Z,22.50
2022-08-05T05:19:50.281Z,22.50
2022-08-05T05:22:23.406Z,22.50
2022-08-05T05:24:58.377Z,22.50
2022-08-05T05:27:41.632Z,22.46
2022-08-05T05:30:30.604Z,22.38
2022-08-05T05:33:16.208Z,22.34
2022-08-05T05:35:45.494Z,22.33
2022-08-05T05:38:13.514Z,22.32
2022-08-05T05:40:49.678Z,22.30
2022-08-05T05:43:54.601Z,22.29
2022-08-05T05:46:16.027Z,22.28
2022-08-05T05:48:46.058Z,22.24
2022-08-05T05:51:19.421Z,22.22
2022-08-05T05:53:57.186Z,22.25
2022-08-05T05:56:32.708Z,22.27
2022-08-05T05:59:03.143Z,22.29
2022-08-05T06:01:37.349Z,22.31
2022-08-05T06:04:11.785Z,22.32
2022-08-05T06:06:41.984Z,22.32
2022-08-05T06:09:09.519Z,22.27
2022-08-05T06:12:01.054Z,22.27
2022-08-05T06:14:33.405Z,22.29
2022-08-05T06:17:02.242Z,22.31
2022-08-05T06:19:57.070Z,22.33
2022-08-05T06:22:33.700Z,22.33
2022-08-05T06:25:01.300Z,22.34
2022-08-05T06:28:10.965Z,22.40
2022-08-05T06:30:34.304Z,22.50
2022-08-05T06:33:01.319Z,22.60
2022-08-05T06:36:07.601Z,22.61
2022-08-05T06:38:14.523Z,22.67
2022-08-05T06:40:44.602Z,22.68
2022-08-05T06:43:58.246Z,22.67
2022-08-05T06:46:06.818Z,22.66
2022-08-05T06:48:53.232Z,22.63
2022-08-05T06:51:29.352Z,22.61
2022-08-05T06:53:58.975Z,22.69
2022-08-05T06:56:27.043Z,22.77
2022-08-05T06:58:54.380Z,22.80
2022-08-05T07:01:21.312Z,22.80
2022-08-05T07:03:49.501Z,22.84
2022-08-05T07:06:16.095Z,22.96
2022-08-05T07:08:47.577Z,22.97
2022-08-05T07:11:21.943Z,22.96
2022-08-05T07:14:15.444Z,22.99
2022-08-05T07:18:00.089Z,23.02
2022-08-05T07:22:28.322Z,22.84
2022-08-05T07:25:22.509Z,22.77
2022-08-05T07:27:57.305Z,22.76
2022-08-05T07:30:38.787Z,22.81
2022-08-05T07:33:09.486Z,22.82
2022-08-05T07:36:04.783Z,22.78
2022-08-05T07:38:33.656Z,22.76
2022-08-05T07:42:09.069Z,22.70
2022-08-05T07:43:57.362Z,22.65
2022-08-05T07:46:28.535Z,22.61
2022-08-05T07:49:03.979Z,22.57
2022-08-05T07:51:36.663Z,22.54
2022-08-05T07:54:05.841Z,22.49
2022-08-05T07:57:00.062Z,22.44
2022-08-05T07:59:31.165Z,22.42
2022-08-05T08:02:16.268Z,22.45
2022-08-05T08:04:47.772Z,22.50
2022-08-05T08:07:16.329Z,22.50
2022-08-05T08:09:44.816Z,22.50
2022-08-05T08:12:35.259Z,22.51
2022-08-05T08:15:03.571Z,22.55
2022-08-05T08:17:32.666Z,22.58
2022-08-05T08:20:10.117Z,22.57
2022-08-05T08:22:57.540Z,22.57
2022-08-05T08:25:27.030Z,22.52
2022-08-05T08:28:18.202Z,22.52
2022-08-05T08:30:47.958Z,22.53
2022-08-05T08:33:17.529Z,22.55
2022-08-05T08:35:53.094Z,22.54
2022-08-05T08:38:35.590Z,22.49
2022-08-05T08:41:09.072Z,22.45
2022-08-05T08:45:25.209Z,22.43
2022-08-05T08:46:31.639Z,22.47
2022-08-05T08:49:09.522Z,22.50
2022-08-05T08:52:03.313Z,22.53
2022-08-05T08:54:33.754Z,22.53
2022-08-05T08:57:04.842Z,22.52
2022-08-05T08:59:37.867Z,22.52
2022-08-05T09:02:08.876Z,22.52
2022-08-05T09:04:57.783Z,22.53
2022-08-05T09:07:29.203Z,22.49
2022-08-05T09:10:06.912Z,22.50
2022-08-05T09:12:34.556Z,22.52
2022-08-05T09:15:06.835Z,22.54
2022-08-05T09:17:40.559Z,22.56
2022-08-05T09:20:09.201Z,22.54
2022-08-05T09:23:37.255Z,22.50
2022-08-05T09:26:20.777Z,22.54
2022-08-05T09:28:49.225Z,22.52
2022-08-05T09:32:39.082Z,22.53
2022-08-05T09:34:05.318Z,22.53
2022-08-05T09:36:53.901Z,22.51
2022-08-05T09:39:24.564Z,22.50
2022-08-05T09:42:07.738Z,22.46
2022-08-05T09:44:40.322Z,22.40
2022-08-05T09:47:12.602Z,22.36
2022-08-05T09:50:01.695Z,22.38
2022-08-05T09:52:34.520Z,22.41
2022-08-05T09:55:58.101Z,22.44
2022-08-05T09:57:58.508Z,22.47
2022-08-05T10:00:27.823Z,22.48
2022-08-05T10:02:58.284Z,22.48
2022-08-05T10:05:28.691Z,22.53
2022-08-05T10:08:35.672Z,22.57
2022-08-05T10:10:54.695Z,22.58
2022-08-05T10:13:47.883Z,22.55
2022-08-05T10:16:30.978Z,22.58
2022-08-05T10:18:59.835Z,22.62
2022-08-05T10:21:27.577Z,22.55
2022-08-05T10:24:06.284Z,22.51
2022-08-05T10:26:37.468Z,22.49
2022-08-05T10:29:23.350Z,22.46
2022-08-05T10:32:54.071Z,22.42
2022-08-05T10:34:37.096Z,22.39
2022-08-05T10:37:07.921Z,22.36
2022-08-05T10:39:59.236Z,22.31
2022-08-05T10:42:33.837Z,22.29
2022-08-05T10:45:01.802Z,22.24
2022-08-05T10:47:33.215Z,22.24
2022-08-05T10:50:31.810Z,22.23
2022-08-05T10:53:03.244Z,22.26
2022-08-05T10:55:32.879Z,22.21
2022-08-05T10:58:20.463Z,22.15
2022-08-05T11:00:48.450Z,22.10
2022-08-05T11:03:25.435Z,22.02
2022-08-05T11:06:08.577Z,21.96
2022-08-05T11:09:32.188Z,21.95
2022-08-05T11:12:37.364Z,21.96
2022-08-05T11:15:20.701Z,21.98
2022-08-05T11:17:59.748Z,22.00
2022-08-05T11:20:43.871Z,21.99
2022-08-05T11:24:05.286Z,21.96
2022-08-05T11:26:32.430Z,21.94
2022-08-05T11:29:11.383Z,21.91
2022-08-05T11:31:58.790Z,21.95
2022-08-05T11:34:50.984Z,21.91
2022-08-05T11:38:26.490Z,21.81
2022-08-05T11:41:00.605Z,21.74
2022-08-05T11:44:04.787Z,21.67
2022-08-05T11:46:32.242Z,21.63
2022-08-05T11:49:00.757Z,21.57
2022-08-05T11:51:44.274Z,21.54
2022-08-05T11:54:33.600Z,21.53
2022-08-05T11:57:07.926Z,21.58
2022-08-05T11:59:50.338Z,21.61
2022-08-05T12:02:30.380Z,21.66
2022-08-05T12:04:59.147Z,21.71
2022-08-05T12:08:08.753Z,21.65
2022-08-05T12:10:22.724Z,21.61
2022-08-05T12:12:59.590Z,21.64
2022-08-05T12:15:38.420Z,21.73
2022-08-05T12:18:11.114Z,21.82
2022-08-05T12:20:39.297Z,21.92
2022-08-05T12:23:11.352Z,22.00
2022-08-05T12:25:57.006Z,22.08
2022-08-05T12:28:50.288Z,22.08
2022-08-05T12:31:23.482Z,22.08
2022-08-05T12:34:02.079Z,22.16
2022-08-05T12:36:30.638Z,22.25
2022-08-05T12:38:59.007Z,22.32
2022-08-05T12:41:34.541Z,22.36
2022-08-05T12:44:11.723Z,22.39
2022-08-05T12:46:45.626Z,22.43
2022-08-05T12:49:15.336Z,22.49
2022-08-05T12:52:17.599Z,22.57
2022-08-05T12:54:51.019Z,22.49
2022-08-05T12:57:19.141Z,22.43
2022-08-05T13:01:57.624Z,22.56
2022-08-05T13:02:39.957Z,22.80
2022-08-05T13:05:08.077Z,23.01
2022-08-05T13:08:00.029Z,23.29
2022-08-05T13:10:26.547Z,23.76
2022-08-05T13:12:57.966Z,24.43
2022-08-05T13:15:36.006Z,24.93
2022-08-05T13:18:19.947Z,25.64
2022-08-05T13:20:48.963Z,25.93
2022-08-05T13:23:18.226Z,25.93
2022-08-05T13:25:52.343Z,25.35
2022-08-05T13:28:25.954Z,24.77
2022-08-05T13:30:53.440Z,24.81
2022-08-05T13:34:21.360Z,25.09
2022-08-05T13:36:09.220Z,25.28
2022-08-05T13:38:38.548Z,25.31
2022-08-05T13:41:12.313Z,25.32
2022-08-05T13:43:45.759Z,25.37
2022-08-05T13:46:43.873Z,25.52
2022-08-05T13:49:09.925Z,25.65
2022-08-05T13:51:40.993Z,25.41
2022-08-05T13:54:13.126Z,25.19
2022-08-05T13:56:45.103Z,25.06
2022-08-05T13:59:21.322Z,25.04
2022-08-05T14:01:56.570Z,25.25
2022-08-05T14:04:43.695Z,25.50
2022-08-05T14:07:26.237Z,25.50
2022-08-05T14:10:08.432Z,25.28
2022-08-05T14:12:35.488Z,25.21
2022-08-05T14:15:05.912Z,25.21
2022-08-05T14:17:48.723Z,25.16
2022-08-05T14:20:18.503Z,24.98
2022-08-05T14:22:50.100Z,24.76
2022-08-05T14:25:19.018Z,24.55
2022-08-05T14:27:49.419Z,24.44
2022-08-05T14:30:20.856Z,24.15
2022-08-05T14:32:48.637Z,24.02
2022-08-05T14:35:15.368Z,23.97
2022-08-05T14:37:48.177Z,24.03
2022-08-05T14:40:17.040Z,24.02
2022-08-05T14:42:44.212Z,23.93
2022-08-05T14:45:11.028Z,23.93
2022-08-05T14:48:02.588Z,23.88
2022-08-05T14:50:25.179Z,23.80
2022-08-05T14:52:56.906Z,23.80
2022-08-05T14:55:24.990Z,23.81
2022-08-05T14:57:54.771Z,23.83
2022-08-05T15:00:25.253Z,23.57
2022-08-05T15:02:55.154Z,23.46
2022-08-05T15:05:21.726Z,23.33
2022-08-05T15:08:06.347Z,23.15
2022-08-05T15:10:38.949Z,23.40
2022-08-05T15:13:09.843Z,23.61
2022-08-05T15:15:55.700Z,23.54
2022-08-05T15:18:23.343Z,23.53
2022-08-05T15:20:49.823Z,23.43
2022-08-05T15:23:17.586Z,23.40
2022-08-05T15:25:53.878Z,23.32
2022-08-05T15:28:27.598Z,23.40
2022-08-05T15:30:54.863Z,23.13
2022-08-05T15:33:56.807Z,22.78
2022-08-05T15:36:09.085Z,22.65
2022-08-05T15:41:23.800Z,22.15
2022-08-05T15:43:52.234Z,22.10
2022-08-05T15:46:24.477Z,22.00
2022-08-05T15:48:58.937Z,22.07
2022-08-05T15:52:09.894Z,22.30
2022-08-05T15:54:15.913Z,22.48
2022-08-05T15:56:42.416Z,22.27
2022-08-05T15:59:10.423Z,22.33
2022-08-05T16:01:52.841Z,22.51
2022-08-05T16:04:25.655Z,22.53
2022-08-05T16:06:54.256Z,22.48
2022-08-05T16:09:23.454Z,22.33
2022-08-05T16:11:53.725Z,22.24
2022-08-05T16:14:20.393Z,22.21
2022-08-05T16:16:47.094Z,22.17
2022-08-05T16:19:25.906Z,22.14
2022-08-05T16:22:03.376Z,22.10
2022-08-05T16:24:40.301Z,22.08
2022-08-05T16:27:08.890Z,21.96
2022-08-05T16:29:37.398Z,21.92
2022-08-05T16:32:05.030Z,21.83
2022-08-05T16:34:32.219Z,21.87
2022-08-05T16:36:58.834Z,21.98
2022-08-05T16:40:05.350Z,22.04
2022-08-05T16:42:15.302Z,21.97
2022-08-05T16:44:44.226Z,22.01
2022-08-05T16:47:28.908Z,22.27
2022-08-05T16:49:57.367Z,22.47
2022-08-05T16:52:24.070Z,22.72
2022-08-05T16:54:59.152Z,23.03
2022-08-05T16:57:52.919Z,23.14
2022-08-05T17:00:12.615Z,23.27
2022-08-05T17:02:40.669Z,23.41
2022-08-05T17:05:07.858Z,23.48
2022-08-05T17:07:43.515Z,23.25
2022-08-05T17:10:21.272Z,23.20
2022-08-05T17:12:54.672Z,23.13
2022-08-05T17:15:21.432Z,23.06
2022-08-05T17:17:55.120Z,22.96
2022-08-05T17:20:21.962Z,22.89
2022-08-05T17:22:52.693Z,22.75
2022-08-05T17:25:33.752Z,22.66
2022-08-05T17:28:01.200Z,22.55
2022-08-05T17:30:29.076Z,22.46
2022-08-05T17:32:55.568Z,22.37
2022-08-05T17:35:22.183Z,22.34
2022-08-05T17:37:49.049Z,22.33
2022-08-05T17:40:18.239Z,22.41
2022-08-05T17:42:50.533Z,22.55
2022-08-05T17:45:22.925Z,22.79
2022-08-05T17:47:54.860Z,22.97
2022-08-05T17:50:28.976Z,23.17
2022-08-05T17:53:01.478Z,23.41
2022-08-05T17:55:37.548Z,23.56
2022-08-05T17:58:12.918Z,23.62
2022-08-05T18:00:47.567Z,23.48
2022-08-05T18:03:58.528Z,23.23
2022-08-05T18:06:11.494Z,22.87
2022-08-05T18:08:45.014Z,22.59
2022-08-05T18:11:23.309Z,22.35
2022-08-05T18:13:50.113Z,22.14
2022-08-05T18:16:20.278Z,21.97
2022-08-05T18:18:47.780Z,21.71
2022-08-05T18:21:21.053Z,21.37
2022-08-05T18:23:49.172Z,21.10
2022-08-05T18:26:21.566Z,20.95
2022-08-05T18:28:54.431Z,20.92
2022-08-05T18:31:21.518Z,20.85
2022-08-05T18:33:51.495Z,20.68
2022-08-05T18:36:19.083Z,20.60
2022-08-05T18:38:46.045Z,20.52
2022-08-05T18:41:56.951Z,20.43
2022-08-05T18:44:05.733Z,20.42
2022-08-05T18:46:33.384Z,20.31
2022-08-05T18:49:20.350Z,20.29
2022-08-05T18:52:08.595Z,20.30
2022-08-05T18:54:41.446Z,20.24
2022-08-05T18:57:15.390Z,20.17
2022-08-05T19:00:02.193Z,20.14
2022-08-05T19:02:29.631Z,20.13
2022-08-05T19:05:02.337Z,20.10
2022-08-05T19:07:49.915Z,20.06
2022-08-05T19:10:18.752Z,20.04
2022-08-05T19:12:53.405Z,19.98
2022-08-05T19:15:56.625Z,19.94
2022-08-05T19:18:10.030Z,19.90
2022-08-05T19:20:41.100Z,19.86
2022-08-05T19:23:08.523Z,19.79
2022-08-05T19:26:01.841Z,19.72
2022-08-05T19:28:33.640Z,19.71
2022-08-05T19:31:01.099Z,19.62
2022-08-05T19:33:34.088Z,19.60
2022-08-05T19:36:02.655Z,19.59
2022-08-05T19:38:32.561Z,19.52
2022-08-05T19:40:58.963Z,19.53
2022-08-05T19:44:04.098Z,19.53
2022-08-05T19:46:16.786Z,19.54
2022-08-05T19:49:04.689Z,19.52
2022-08-05T19:52:05.013Z,19.50
2022-08-05T19:54:27.197Z,19.53
2022-08-05T19:56:58.387Z,19.54
2022-08-05T19:59:59.564Z,19.56
2022-08-05T20:02:11.606Z,19.56
2022-08-05T20:04:38.095Z,19.53
2022-08-05T20:07:13.107Z,19.50
2022-08-05T20:09:55.021Z,19.47
2022-08-05T20:12:24.518Z,19.42
2022-08-05T20:14:52.853Z,19.36
2022-08-05T20:17:23.700Z,19.32
2022-08-05T20:19:51.092Z,19.29
2022-08-05T20:22:23.831Z,19.24
2022-08-05T20:24:53.768Z,19.22
2022-08-05T20:27:21.011Z,19.17
2022-08-05T20:29:58.495Z,19.14
2022-08-05T20:32:27.254Z,19.12
2022-08-05T20:34:54.319Z,19.06
2022-08-05T20:38:04.532Z,19.03
2022-08-05T20:40:09.097Z,19.02
2022-08-05T20:42:35.807Z,19.00
2022-08-05T20:45:02.518Z,18.98
2022-08-05T20:47:32.073Z,18.96
2022-08-05T20:49:59.388Z,18.98
2022-08-05T20:52:26.094Z,18.99
2022-08-05T20:55:54.228Z,19.00
2022-08-05T20:57:43.631Z,19.00
2022-08-05T21:00:41.432Z,18.98
2022-08-05T21:03:06.254Z,18.98
2022-08-05T21:05:48.098Z,18.96
2022-08-05T21:08:21.349Z,18.96
2022-08-05T21:10:59.765Z,18.93
2022-08-05T21:13:55.994Z,18.92
2022-08-05T21:16:13.837Z,18.91
2022-08-05T21:18:45.143Z,18.89
2022-08-05T21:21:11.926Z,18.85
2022-08-05T21:23:38.966Z,18.81
2022-08-05T21:26:12.215Z,18.77
2022-08-05T21:28:47.618Z,18.72
2022-08-05T21:31:18.242Z,18.67
2022-08-05T21:33:47.859Z,18.64
2022-08-05T21:36:27.569Z,18.59
2022-08-05T21:38:54.622Z,18.60
2022-08-05T21:41:21.272Z,18.58
2022-08-05T21:44:01.244Z,18.58
2022-08-05T21:46:28.931Z,18.63
2022-08-05T21:48:56.629Z,18.61
2022-08-05T21:51:24.995Z,18.63
2022-08-05T21:54:10.013Z,18.67
2022-08-05T21:56:36.537Z,18.65
2022-08-05T21:59:24.214Z,18.62
2022-08-05T22:01:51.775Z,18.66
2022-08-05T22:04:21.159Z,18.67
2022-08-05T22:06:52.422Z,18.65
2022-08-05T22:09:21.133Z,18.63
2022-08-05T22:11:48.846Z,18.60
2022-08-05T22:14:37.259Z,18.58
2022-08-05T22:17:05.341Z,18.56
2022-08-05T22:20:02.074Z,18.52
2022-08-05T22:22:26.999Z,18.53
2022-08-05T22:25:18.014Z,18.48
2022-08-05T22:28:08.539Z,18.47
2022-08-05T22:30:44.038Z,18.47
2022-08-05T22:33:56.824Z,18.43
2022-08-05T22:36:11.160Z,18.40
2022-08-05T22:38:41.292Z,18.40
2022-08-05T22:41:10.067Z,18.41
2022-08-05T22:43:38.224Z,18.41
2022-08-05T22:46:13.406Z,18.39
2022-08-05T22:48:49.819Z,18.33
2022-08-05T22:51:23.329Z,18.31
2022-08-05T22:54:03.464Z,18.35
2022-08-05T22:56:31.492Z,18.34
2022-08-05T22:59:03.977Z,18.34
2022-08-05T23:02:04.578Z,18.36
2022-08-05T23:04:33.611Z,18.38
2022-08-05T23:07:00.006Z,18.31
2022-08-05T23:09:27.598Z,18.31
2022-08-05T23:12:13.157Z,18.32
2022-08-05T23:14:39.638Z,18.29
2022-08-05T23:17:34.092Z,18.27
2022-08-05T23:20:16.561Z,18.28
2022-08-05T23:22:48.408Z,18.26
2022-08-05T23:25:53.363Z,18.25
2022-08-05T23:28:06.941Z,18.24
2022-08-05T23:30:39.702Z,18.18
2022-08-05T23:33:22.367Z,18.09
2022-08-05T23:35:56.606Z,18.07
2022-08-05T23:38:24.174Z,18.08
2022-08-05T23:40:52.742Z,18.07
2022-08-05T23:43:25.206Z,18.07
2022-08-05T23:46:05.218Z,18.10
2022-08-05T23:49:00.371Z,18.07
2022-08-05T23:51:53.456Z,17.98
2022-08-05T23:54:25.052Z,17.98
2022-08-05T23:57:03.174Z,17.96
2022-08-05T23:59:37.633Z,17.99
